createdAt,value
2023-06-19T00:01:55.733Z,100921.83
2023-06-19T00:05:18.194Z,100919.05
2023-06-19T00:08:46.771Z,100915.05
2023-06-19T00:12:06.540Z,100917.12
2023-06-19T00:15:25.503Z,100922.16
2023-06-19T00:18:54.321Z,100922.48
2023-06-19T00:22:23.067Z,100925.95
2023-06-19T00:25:52.329Z,100921.44
2023-06-19T00:29:21.157Z,100918.66
2023-06-19T00:32:50.118Z,100915.52
2023-06-19T00:36:11.486Z,100908.73
2023-06-19T00:39:43.050Z,100907.86
2023-06-19T00:43:12.191Z,100903.84
2023-06-19T00:46:33.942Z,100908.52
2023-06-19T00:50:03.087Z,100907.98
2023-06-19T00:53:25.582Z,100909.71
2023-06-19T00:56:53.687Z,100902.91
2023-06-19T01:00:23.086Z,100900.28
2023-06-19T01:03:52.528Z,100900.41
2023-06-19T01:07:24.693Z,100897.44
2023-06-19T01:10:50.431Z,100895.86
2023-06-19T01:13:59.382Z,100890.98
2023-06-19T01:17:28.986Z,100892.34
2023-06-19T01:20:58.197Z,100894.77
2023-06-19T01:24:27.338Z,100893.72
2023-06-19T01:27:55.981Z,100897.00
2023-06-19T01:31:25.080Z,100899.61
2023-06-19T01:34:47.793Z,100902.20
2023-06-19T01:38:17.221Z,100901.48
2023-06-19T01:41:46.350Z,100904.08
2023-06-19T01:45:15.464Z,100905.97
2023-06-19T01:48:45.062Z,100905.26
2023-06-19T01:52:08.772Z,100903.84
2023-06-19T01:55:38.122Z,100905.59
2023-06-19T01:59:00.302Z,100901.90
2023-06-19T02:02:29.370Z,100899.11
2023-06-19T02:05:58.560Z,100900.14
2023-06-19T02:09:27.416Z,100900.66
2023-06-19T02:12:56.468Z,100907.23
2023-06-19T02:16:27.218Z,100909.84
2023-06-19T02:19:39.106Z,100912.96
2023-06-19T02:23:08.573Z,100913.66
2023-06-19T02:26:37.783Z,100920.06
2023-06-19T02:30:06.784Z,100918.31
2023-06-19T02:33:28.468Z,100915.01
2023-06-19T02:36:57.414Z,100912.21
2023-06-19T02:40:26.787Z,100914.14
2023-06-19T02:43:45.751Z,100912.42
2023-06-19T02:47:15.417Z,100913.14
2023-06-19T02:50:45.944Z,100916.81
2023-06-19T02:54:15.144Z,100917.17
2023-06-19T02:57:44.463Z,100917.89
2023-06-19T03:01:13.634Z,100923.11
2023-06-19T03:04:23.696Z,100924.33
2023-06-19T03:07:53.738Z,100924.83
2023-06-19T03:11:23.370Z,100922.58
2023-06-19T03:14:48.885Z,100923.48
2023-06-19T03:18:17.499Z,100923.14
2023-06-19T03:21:46.397Z,100925.77
2023-06-19T03:25:15.155Z,100929.78
2023-06-19T03:28:43.907Z,100931.05
2023-06-19T03:32:06.580Z,100933.70
2023-06-19T03:35:35.751Z,100937.36
2023-06-19T03:39:03.568Z,100935.83
2023-06-19T03:42:32.355Z,100941.59
2023-06-19T03:46:01.386Z,100944.36
2023-06-19T03:49:32.691Z,100946.44
2023-06-19T03:53:01.921Z,100949.07
2023-06-19T03:56:24.869Z,100951.52
2023-06-19T03:59:44.141Z,100955.17
2023-06-19T04:03:03.290Z,100955.19
2023-06-19T04:06:32.617Z,100960.63
2023-06-19T04:10:01.940Z,100962.90
2023-06-19T04:13:30.765Z,100967.43
2023-06-19T04:16:59.838Z,100970.20
2023-06-19T04:20:33.246Z,100968.95
2023-06-19T04:23:54.665Z,100969.99
2023-06-19T04:27:23.622Z,100972.08
2023-06-19T04:30:52.876Z,100965.30
2023-06-19T04:34:22.234Z,100966.71
2023-06-19T04:37:51.531Z,100965.15
2023-06-19T04:41:20.797Z,100965.30
2023-06-19T04:44:49.941Z,100968.42
2023-06-19T04:48:20.141Z,100968.20
2023-06-19T04:51:38.963Z,100972.17
2023-06-19T04:55:00.950Z,100975.61
2023-06-19T04:58:29.700Z,100975.25
2023-06-19T05:01:58.578Z,100979.04
2023-06-19T05:05:16.429Z,100981.81
2023-06-19T05:08:45.307Z,100984.05
2023-06-19T05:12:14.091Z,100985.77
2023-06-19T05:15:43.124Z,100986.41
2023-06-19T05:19:12.000Z,100985.67
2023-06-19T05:22:46.743Z,100985.30
2023-06-19T05:26:16.553Z,100980.39
2023-06-19T05:29:45.354Z,100978.79
2023-06-19T05:33:15.073Z,100978.20
2023-06-19T05:36:42.612Z,100974.36
2023-06-19T05:40:12.876Z,100966.34
2023-06-19T05:43:42.011Z,100968.40
2023-06-19T05:47:11.221Z,100966.28
2023-06-19T05:50:23.719Z,100968.84
2023-06-19T05:53:42.189Z,100972.27
2023-06-19T05:57:03.507Z,100969.13
2023-06-19T06:00:35.168Z,100975.35
2023-06-19T06:03:57.545Z,100973.16
2023-06-19T06:07:26.840Z,100972.92
2023-06-19T06:10:46.700Z,100969.56
2023-06-19T06:14:16.047Z,100971.59
2023-06-19T06:17:45.136Z,100969.78
2023-06-19T06:21:06.646Z,100966.96
2023-06-19T06:24:28.136Z,100963.83
2023-06-19T06:27:57.372Z,100960.20
2023-06-19T06:31:26.716Z,100956.55
2023-06-19T06:34:55.888Z,100956.35
2023-06-19T06:38:25.100Z,100958.58
2023-06-19T06:41:54.235Z,100952.83
2023-06-19T06:45:24.989Z,100948.62
2023-06-19T06:48:54.676Z,100947.87
2023-06-19T06:52:14.775Z,100948.20
2023-06-19T06:55:46.453Z,100951.11
2023-06-19T06:59:15.205Z,100951.40
2023-06-19T07:02:44.096Z,100953.59
2023-06-19T07:06:12.983Z,100958.21
2023-06-19T07:09:50.260Z,100957.76
2023-06-19T07:13:19.025Z,100956.48
2023-06-19T07:16:40.959Z,100959.05
2023-06-19T07:20:11.128Z,100963.17
2023-06-19T07:23:40.026Z,100962.88
2023-06-19T07:27:09.612Z,100960.19
2023-06-19T07:30:31.004Z,100959.08
2023-06-19T07:33:59.958Z,100963.42
2023-06-19T07:37:28.934Z,100963.11
2023-06-19T07:40:58.171Z,100961.91
2023-06-19T07:44:15.546Z,100957.42
2023-06-19T07:47:43.317Z,100954.69
2023-06-19T07:51:12.310Z,100955.26
2023-06-19T07:54:40.984Z,100954.60
2023-06-19T07:58:10.098Z,100953.11
2023-06-19T08:01:39.261Z,100952.83
2023-06-19T08:04:56.433Z,100955.45
2023-06-19T08:08:26.981Z,100955.13
2023-06-19T08:11:56.074Z,100953.20
2023-06-19T08:15:25.139Z,100950.40
2023-06-19T08:18:54.246Z,100947.27
2023-06-19T08:22:23.649Z,100949.17
2023-06-19T08:25:46.016Z,100949.41
2023-06-19T08:29:15.529Z,100947.38
2023-06-19T08:32:44.208Z,100949.15
2023-06-19T08:36:12.393Z,100946.08
2023-06-19T08:39:41.838Z,100945.59
2023-06-19T08:43:03.465Z,100942.85
2023-06-19T08:46:25.070Z,100940.13
2023-06-19T08:49:44.374Z,100940.32
2023-06-19T08:53:06.215Z,100936.91
2023-06-19T08:56:35.461Z,100939.02
2023-06-19T09:00:10.747Z,100942.66
2023-06-19T09:03:43.468Z,100936.77
2023-06-19T09:07:12.916Z,100935.17
2023-06-19T09:10:41.658Z,100940.19
2023-06-19T09:14:11.018Z,100939.13
2023-06-19T09:17:41.540Z,100937.70
2023-06-19T09:21:09.056Z,100937.82
2023-06-19T09:24:38.219Z,100940.55
2023-06-19T09:28:10.237Z,100945.50
2023-06-19T09:31:39.092Z,100943.16
2023-06-19T09:35:08.572Z,100945.51
2023-06-19T09:38:37.850Z,100948.38
2023-06-19T09:42:06.129Z,100946.41
2023-06-19T09:45:35.284Z,100951.04
2023-06-19T09:49:04.581Z,100947.30
2023-06-19T09:52:36.553Z,100947.28
2023-06-19T09:56:05.988Z,100946.67
2023-06-19T09:59:35.268Z,100946.10
2023-06-19T10:02:57.200Z,100943.09
2023-06-19T10:06:34.985Z,100947.05
2023-06-19T10:10:10.294Z,100947.73
2023-06-19T10:13:28.571Z,100950.82
2023-06-19T10:16:57.056Z,100953.74
2023-06-19T10:20:27.110Z,100956.02
2023-06-19T10:23:58.253Z,100956.04
2023-06-19T10:27:17.388Z,100957.94
2023-06-19T10:30:46.319Z,100956.34
2023-06-19T10:34:15.281Z,100958.58
2023-06-19T10:37:44.586Z,100952.28
2023-06-19T10:41:12.348Z,100952.21
2023-06-19T10:44:42.463Z,100953.65
2023-06-19T10:48:12.074Z,100951.65
2023-06-19T10:51:42.162Z,100955.58
2023-06-19T10:55:04.792Z,100956.21
2023-06-19T10:58:34.075Z,100955.61
2023-06-19T11:02:03.629Z,100955.66
2023-06-19T11:05:25.970Z,100952.29
2023-06-19T11:08:54.735Z,100953.08
2023-06-19T11:12:26.678Z,100950.78
2023-06-19T11:15:56.492Z,100951.07
2023-06-19T11:19:26.529Z,100950.48
2023-06-19T11:22:46.776Z,100951.71
2023-06-19T11:26:13.982Z,100957.67
2023-06-19T11:29:36.988Z,100956.42
2023-06-19T11:33:14.813Z,100954.70
2023-06-19T11:36:30.201Z,100955.65
2023-06-19T11:39:59.426Z,100955.60
2023-06-19T11:43:28.653Z,100957.17
2023-06-19T11:46:57.899Z,100954.92
2023-06-19T11:50:21.861Z,100955.45
2023-06-19T11:53:37.305Z,100961.68
2023-06-19T11:57:06.380Z,100964.00
2023-06-19T12:00:35.917Z,100964.23
2023-06-19T12:04:05.160Z,100965.48
2023-06-19T12:07:34.223Z,100967.12
2023-06-19T12:10:58.945Z,100967.33
2023-06-19T12:14:28.417Z,100963.61
2023-06-19T12:17:38.253Z,100967.55
2023-06-19T12:21:00.167Z,100966.66
2023-06-19T12:24:29.306Z,100963.85
2023-06-19T12:27:41.432Z,100966.36
2023-06-19T12:31:03.164Z,100968.38
2023-06-19T12:34:29.468Z,100960.17
2023-06-19T12:37:59.940Z,100959.55
2023-06-19T12:41:28.944Z,100964.08
2023-06-19T12:44:58.194Z,100961.50
2023-06-19T12:48:29.196Z,100965.00
2023-06-19T12:51:58.165Z,100966.25
2023-06-19T12:55:28.092Z,100968.39
2023-06-19T12:58:56.918Z,100967.92
2023-06-19T13:02:25.877Z,100962.61
2023-06-19T13:05:55.286Z,100966.78
2023-06-19T13:09:23.971Z,100968.40
2023-06-19T13:12:45.721Z,100970.50
2023-06-19T13:16:15.281Z,100969.30
2023-06-19T13:19:45.325Z,100969.64
2023-06-19T13:23:14.610Z,100971.90
2023-06-19T13:26:43.801Z,100969.23
2023-06-19T13:30:11.502Z,100967.86
2023-06-19T13:33:23.921Z,100964.92
2023-06-19T13:36:25.842Z,100970.16
2023-06-19T13:39:55.965Z,100970.67
2023-06-19T13:43:16.932Z,100974.98
2023-06-19T13:46:44.520Z,100975.45
2023-06-19T13:50:15.197Z,100977.85
2023-06-19T13:53:35.048Z,100983.27
2023-06-19T13:56:49.928Z,100988.69
2023-06-19T14:00:19.130Z,100988.31
2023-06-19T14:03:40.659Z,100991.47
2023-06-19T14:07:09.845Z,100991.48
2023-06-19T14:10:38.958Z,100992.73
2023-06-19T14:14:07.721Z,100995.84
2023-06-19T14:17:36.562Z,100998.48
2023-06-19T14:21:04.539Z,100997.77
2023-06-19T14:24:33.692Z,101001.95
2023-06-19T14:27:43.382Z,101004.88
2023-06-19T14:31:11.915Z,101008.34
2023-06-19T14:34:29.404Z,101010.78
2023-06-19T14:37:58.622Z,101013.06
2023-06-19T14:41:27.934Z,101018.84
2023-06-19T14:44:57.071Z,101021.87
2023-06-19T14:48:26.598Z,101028.35
2023-06-19T14:51:56.730Z,101033.08
2023-06-19T14:55:26.097Z,101037.11
2023-06-19T14:58:54.920Z,101038.04
2023-06-19T15:02:12.438Z,101043.15
2023-06-19T15:05:28.541Z,101042.17
2023-06-19T15:08:37.158Z,101044.50
2023-06-19T15:12:06.375Z,101047.16
2023-06-19T15:15:35.109Z,101049.81
2023-06-19T15:18:54.928Z,101051.61
2023-06-19T15:22:23.654Z,101050.96
2023-06-19T15:25:52.710Z,101054.33
2023-06-19T15:29:12.022Z,101052.48
2023-06-19T15:32:41.123Z,101054.42
2023-06-19T15:36:10.433Z,101051.83
2023-06-19T15:39:39.620Z,101054.30
2023-06-19T15:42:48.811Z,101053.30
2023-06-19T15:46:18.963Z,101056.14
2023-06-19T15:49:48.043Z,101049.40
2023-06-19T15:53:10.387Z,101052.06
2023-06-19T15:56:39.478Z,101044.98
2023-06-19T16:00:08.593Z,101048.36
2023-06-19T16:03:37.967Z,101050.55
2023-06-19T16:07:07.042Z,101054.61
2023-06-19T16:10:35.819Z,101055.89
2023-06-19T16:14:04.912Z,101060.77
2023-06-19T16:17:34.520Z,101057.50
2023-06-19T16:21:03.612Z,101057.05
2023-06-19T16:24:32.865Z,101056.92
2023-06-19T16:28:02.467Z,101052.02
2023-06-19T16:31:24.874Z,101048.17
2023-06-19T16:34:53.895Z,101052.13
2023-06-19T16:38:24.170Z,101052.80
2023-06-19T16:41:53.268Z,101048.44
2023-06-19T16:45:13.137Z,101046.76
2023-06-19T16:48:27.760Z,101052.79
2023-06-19T16:51:31.984Z,101054.30
2023-06-19T16:55:01.642Z,101058.19
2023-06-19T16:58:30.887Z,101052.19
2023-06-19T17:01:50.312Z,101054.75
2023-06-19T17:05:19.040Z,101046.73
2023-06-19T17:08:48.328Z,101038.35
2023-06-19T17:12:17.326Z,101038.30
2023-06-19T17:15:46.439Z,101031.80
2023-06-19T17:19:15.869Z,101023.91
2023-06-19T17:22:45.140Z,101023.30
2023-06-19T17:26:03.152Z,101019.89
2023-06-19T17:29:32.114Z,101017.33
2023-06-19T17:33:01.493Z,101016.85
2023-06-19T17:36:31.369Z,101018.11
2023-06-19T17:39:50.332Z,101024.94
2023-06-19T17:43:19.150Z,101034.22
2023-06-19T17:46:40.515Z,101034.41
2023-06-19T17:50:10.345Z,101038.28
2023-06-19T17:53:28.540Z,101039.89
2023-06-19T17:56:57.573Z,101037.80
2023-06-19T18:00:27.182Z,101037.33
2023-06-19T18:03:50.090Z,101034.40
2023-06-19T18:07:19.163Z,101033.71
2023-06-19T18:10:48.081Z,101033.37
2023-06-19T18:14:16.994Z,101038.80
2023-06-19T18:17:47.302Z,101045.47
2023-06-19T18:21:16.441Z,101043.39
2023-06-19T18:24:45.565Z,101046.15
2023-06-19T18:28:14.634Z,101047.02
2023-06-19T18:31:43.957Z,101048.94
2023-06-19T18:35:13.038Z,101049.98
2023-06-19T18:38:41.760Z,101052.20
2023-06-19T18:42:03.209Z,101054.84
2023-06-19T18:45:32.395Z,101053.81
2023-06-19T18:49:03.088Z,101058.68
2023-06-19T18:52:24.463Z,101058.43
2023-06-19T18:55:53.580Z,101060.66
2023-06-19T18:59:22.268Z,101063.74
2023-06-19T19:02:51.124Z,101063.37
2023-06-19T19:06:21.112Z,101066.23
2023-06-19T19:09:49.910Z,101064.99
2023-06-19T19:13:12.010Z,101067.58
2023-06-19T19:16:41.167Z,101060.73
2023-06-19T19:20:10.032Z,101062.02
2023-06-19T19:23:38.946Z,101062.82
2023-06-19T19:27:08.032Z,101057.08
2023-06-19T19:30:36.933Z,101061.41
2023-06-19T19:34:05.843Z,101049.62
2023-06-19T19:37:34.764Z,101048.99
2023-06-19T19:41:03.566Z,101043.34
2023-06-19T19:44:32.556Z,101045.90
2023-06-19T19:48:01.511Z,101045.66
2023-06-19T19:51:30.270Z,101046.43
2023-06-19T19:54:59.096Z,101045.50
2023-06-19T19:58:21.224Z,101040.66
2023-06-19T20:01:50.028Z,101045.75
2023-06-19T20:05:18.813Z,101048.06
2023-06-19T20:08:29.937Z,101050.70
2023-06-19T20:12:05.927Z,101052.98
2023-06-19T20:15:48.027Z,101055.97
2023-06-19T20:19:17.562Z,101053.55
2023-06-19T20:22:46.385Z,101057.90
2023-06-19T20:26:15.138Z,101061.37
2023-06-19T20:29:43.842Z,101047.94
2023-06-19T20:32:55.177Z,101050.88
2023-06-19T20:36:23.955Z,101050.53
2023-06-19T20:39:52.145Z,101049.48
2023-06-19T20:43:21.639Z,101047.76
2023-06-19T20:46:50.375Z,101041.86
2023-06-19T20:50:18.329Z,101041.88
2023-06-19T20:53:47.054Z,101045.90
2023-06-19T20:57:16.488Z,101046.42
2023-06-19T21:00:21.896Z,101047.30
2023-06-19T21:03:40.912Z,101045.90
2023-06-19T21:07:09.655Z,101046.80
2023-06-19T21:10:39.037Z,101051.66
2023-06-19T21:14:07.882Z,101054.61
2023-06-19T21:17:36.875Z,101059.85
2023-06-19T21:21:05.654Z,101060.56
2023-06-19T21:24:34.804Z,101059.17
2023-06-19T21:28:03.848Z,101064.06
2023-06-19T21:31:21.450Z,101063.20
2023-06-19T21:34:50.498Z,101064.60
2023-06-19T21:38:19.412Z,101072.63
2023-06-19T21:41:33.660Z,101072.98
2023-06-19T21:45:01.455Z,101075.41
2023-06-19T21:48:30.295Z,101073.17
2023-06-19T21:51:51.739Z,101069.70
2023-06-19T21:55:19.325Z,101073.20
2023-06-19T21:58:40.758Z,101075.65
2023-06-19T22:02:09.512Z,101082.46
2023-06-19T22:05:38.276Z,101083.52
2023-06-19T22:09:07.061Z,101079.19
2023-06-19T22:12:36.179Z,101081.46
2023-06-19T22:16:05.400Z,101085.13
2023-06-19T22:19:36.001Z,101085.64
2023-06-19T22:23:04.958Z,101084.08
2023-06-19T22:26:34.138Z,101084.42
2023-06-19T22:30:02.911Z,101085.30
2023-06-19T22:33:18.197Z,101086.17
2023-06-19T22:36:47.492Z,101082.34
2023-06-19T22:40:12.964Z,101083.55
2023-06-19T22:43:41.668Z,101083.55
2023-06-19T22:47:11.328Z,101087.91
2023-06-19T22:50:33.597Z,101090.01
2023-06-19T22:54:03.189Z,101087.39
2023-06-19T22:57:32.525Z,101095.06
2023-06-19T23:01:01.543Z,101097.84
2023-06-19T23:04:31.028Z,101101.68
2023-06-19T23:07:59.920Z,101100.30
2023-06-19T23:11:24.873Z,101100.83
2023-06-19T23:14:46.328Z,101101.86
2023-06-19T23:18:08.594Z,101105.53
2023-06-19T23:21:37.355Z,101107.80
2023-06-19T23:24:56.488Z,101108.32
2023-06-19T23:28:23.938Z,101110.06
2023-06-19T23:31:53.263Z,101114.77
2023-06-19T23:35:13.871Z,101112.14
2023-06-19T23:38:42.666Z,101118.79
2023-06-19T23:42:11.342Z,101116.34
2023-06-19T23:45:40.081Z,101121.39
2023-06-19T23:49:09.892Z,101124.36
2023-06-19T23:52:44.315Z,101126.27
2023-06-19T23:56:05.208Z,101129.25
2023-06-19T23:59:34.527Z,101133.77
